sensor_id;sensor_type;location;lat;lon;timestamp;temperature;humidity
27978;DHT22;15314;49.248;6.968;2023-05-07T00:00:20;14.70;99.90
27978;DHT22;15314;49.248;6.968;2023-05-07T00:01:21;14.70;99.90
27978;DHT22;15314;49.248;6.968;2023-05-07T00:02:21;14.70;99.90
27978;DHT22;15314;49.248;6.968;2023-05-07T00:03:22;14.70;99.90
27978;DHT22;15314;49.248;6.968;2023-05-07T00:04:23;14.70;99.90
27978;DHT22;15314;49.248;6.968;2023-05-07T00:05:24;14.70;99.90
27978;DHT22;15314;49.248;6.968;2023-05-07T00:06:25;14.70;99.90
27978;DHT22;15314;49.248;6.968;2023-05-07T00:07:27;14.70;99.90
27978;DHT22;15314;49.248;6.968;2023-05-07T00:08:27;14.70;99.90
27978;DHT22;15314;49.248;6.968;2023-05-07T00:09:28;14.60;99.90
27978;DHT22;15314;49.248;6.968;2023-05-07T00:10:29;14.60;99.90
27978;DHT22;15314;49.248;6.968;2023-05-07T00:11:29;14.60;99.90
27978;DHT22;15314;49.248;6.968;2023-05-07T00:12:30;14.60;99.90
27978;DHT22;15314;49.248;6.968;2023-05-07T00:13:33;14.60;99.90
27978;DHT22;15314;49.248;6.968;2023-05-07T00:14:36;14.60;99.90
27978;DHT22;15314;49.248;6.968;2023-05-07T00:15:36;14.70;99.90
27978;DHT22;15314;49.248;6.968;2023-05-07T00:16:37;14.60;99.90
27978;DHT22;15314;49.248;6.968;2023-05-07T00:17:38;14.70;99.90
27978;DHT22;15314;49.248;6.968;2023-05-07T00:18:38;14.70;99.90
27978;DHT22;15314;49.248;6.968;2023-05-07T00:19:39;14.70;99.90
27978;DHT22;15314;49.248;6.968;2023-05-07T00:20:40;14.60;99.90
27978;DHT22;15314;49.248;6.968;2023-05-07T00:21:40;14.60;99.90
27978;DHT22;15314;49.248;6.968;2023-05-07T00:22:41;14.50;99.90
27978;DHT22;15314;49.248;6.968;2023-05-07T00:23:41;14.50;99.90
27978;DHT22;15314;49.248;6.968;2023-05-07T00:24:42;14.60;99.90
27978;DHT22;15314;49.248;6.968;2023-05-07T00:25:43;14.60;99.90
27978;DHT22;15314;49.248;6.968;2023-05-07T00:26:44;14.60;99.90
27978;DHT22;15314;49.248;6.968;2023-05-07T00:27:44;14.60;99.90
27978;DHT22;15314;49.248;6.968;2023-05-07T00:28:45;14.70;99.90
27978;DHT22;15314;49.248;6.968;2023-05-07T00:29:46;14.70;99.90
27978;DHT22;15314;49.248;6.968;2023-05-07T00:30:46;14.70;99.90
27978;DHT22;15314;49.248;6.968;2023-05-07T00:31:49;14.70;99.90
27978;DHT22;15314;49.248;6.968;2023-05-07T00:32:50;14.70;99.90
27978;DHT22;15314;49.248;6.968;2023-05-07T00:33:51;14.70;99.90
27978;DHT22;15314;49.248;6.968;2023-05-07T00:34:51;14.60;99.90
27978;DHT22;15314;49.248;6.968;2023-05-07T00:35:52;14.60;99.90
27978;DHT22;15314;49.248;6.968;2023-05-07T00:36:54;14.60;99.90
27978;DHT22;15314;49.248;6.968;2023-05-07T00:37:55;14.60;99.90
27978;DHT22;15314;49.248;6.968;2023-05-07T00:38:57;14.60;99.90
27978;DHT22;15314;49.248;6.968;2023-05-07T00:39:59;14.60;99.90
27978;DHT22;15314;49.248;6.968;2023-05-07T00:41:00;14.60;99.90
27978;DHT22;15314;49.248;6.968;2023-05-07T00:42:00;14.60;99.90
27978;DHT22;15314;49.248;6.968;2023-05-07T00:43:01;14.60;99.90
27978;DHT22;15314;49.248;6.968;2023-05-07T00:44:02;14.60;99.90
27978;DHT22;15314;49.248;6.968;2023-05-07T00:45:03;14.60;99.90
27978;DHT22;15314;49.248;6.968;2023-05-07T00:46:04;14.60;99.90
27978;DHT22;15314;49.248;6.968;2023-05-07T00:47:06;14.60;99.90
27978;DHT22;15314;49.248;6.968;2023-05-07T00:48:07;14.60;99.90
27978;DHT22;15314;49.248;6.968;2023-05-07T00:49:07;14.60;99.90
27978;DHT22;15314;49.248;6.968;2023-05-07T00:50:08;14.60;99.90
27978;DHT22;15314;49.248;6.968;2023-05-07T00:51:11;14.50;99.90
27978;DHT22;15314;49.248;6.968;2023-05-07T00:52:14;14.50;99.90
27978;DHT22;15314;49.248;6.968;2023-05-07T00:53:15;14.50;99.90
27978;DHT22;15314;49.248;6.968;2023-05-07T00:54:16;14.50;99.90
27978;DHT22;15314;49.248;6.968;2023-05-07T00:55:17;14.50;99.90
27978;DHT22;15314;49.248;6.968;2023-05-07T00:56:19;14.50;99.90
27978;DHT22;15314;49.248;6.968;2023-05-07T00:57:21;14.40;99.90
27978;DHT22;15314;49.248;6.968;2023-05-07T00:58:23;14.50;99.90
27978;DHT22;15314;49.248;6.968;2023-05-07T00:59:24;14.40;99.90
27978;DHT22;15314;49.248;6.968;2023-05-07T01:00:25;14.40;99.90
27978;DHT22;15314;49.248;6.968;2023-05-07T01:01:25;14.40;99.90
27978;DHT22;15314;49.248;6.968;2023-05-07T01:02:26;14.40;99.90
27978;DHT22;15314;49.248;6.968;2023-05-07T01:03:27;14.40;99.90
27978;DHT22;15314;49.248;6.968;2023-05-07T01:04:28;14.40;99.90
27978;DHT22;15314;49.248;6.968;2023-05-07T01:05:29;14.40;99.90
27978;DHT22;15314;49.248;6.968;2023-05-07T01:06:32;14.40;99.90
27978;DHT22;15314;49.248;6.968;2023-05-07T01:07:33;14.40;99.90
27978;DHT22;15314;49.248;6.968;2023-05-07T01:08:35;14.40;99.90
27978;DHT22;15314;49.248;6.968;2023-05-07T01:09:37;14.40;99.90
27978;DHT22;15314;49.248;6.968;2023-05-07T01:10:37;14.40;99.90
27978;DHT22;15314;49.248;6.968;2023-05-07T01:11:43;14.40;99.90
27978;DHT22;15314;49.248;6.968;2023-05-07T01:12:45;14.40;99.90
27978;DHT22;15314;49.248;6.968;2023-05-07T01:13:47;14.30;99.90
27978;DHT22;15314;49.248;6.968;2023-05-07T01:14:49;14.30;99.90
27978;DHT22;15314;49.248;6.968;2023-05-07T01:15:50;14.30;99.90
27978;DHT22;15314;49.248;6.968;2023-05-07T01:16:51;14.20;99.90
27978;DHT22;15314;49.248;6.968;2023-05-07T01:17:52;14.20;99.90
27978;DHT22;15314;49.248;6.968;2023-05-07T01:18:53;14.20;99.90
27978;DHT22;15314;49.248;6.968;2023-05-07T01:19:53;14.20;99.90
27978;DHT22;15314;49.248;6.968;2023-05-07T01:20:56;14.20;99.90
27978;DHT22;15314;49.248;6.968;2023-05-07T01:22:03;14.20;99.90
27978;DHT22;15314;49.248;6.968;2023-05-07T01:23:05;14.20;99.90
27978;DHT22;15314;49.248;6.968;2023-05-07T01:24:07;14.20;99.90
27978;DHT22;15314;49.248;6.968;2023-05-07T01:25:08;14.20;99.90
27978;DHT22;15314;49.248;6.968;2023-05-07T01:26:08;14.20;99.90
27978;DHT22;15314;49.248;6.968;2023-05-07T01:27:09;14.20;99.90
27978;DHT22;15314;49.248;6.968;2023-05-07T01:28:10;14.10;99.90
27978;DHT22;15314;49.248;6.968;2023-05-07T01:29:10;14.10;99.90
27978;DHT22;15314;49.248;6.968;2023-05-07T01:30:11;14.10;99.90
27978;DHT22;15314;49.248;6.968;2023-05-07T01:31:14;14.10;99.90
27978;DHT22;15314;49.248;6.968;2023-05-07T01:32:16;14.10;99.90
27978;DHT22;15314;49.248;6.968;2023-05-07T01:33:20;14.10;99.90
27978;DHT22;15314;49.248;6.968;2023-05-07T01:34:22;14.10;99.90
27978;DHT22;15314;49.248;6.968;2023-05-07T01:35:30;14.00;99.90
27978;DHT22;15314;49.248;6.968;2023-05-07T01:36:33;14.00;99.90
27978;DHT22;15314;49.248;6.968;2023-05-07T01:37:33;14.00;99.90
27978;DHT22;15314;49.248;6.968;2023-05-07T01:38:36;14.00;99.90
27978;DHT22;15314;49.248;6.968;2023-05-07T01:39:39;13.90;99.90
27978;DHT22;15314;49.248;6.968;2023-05-07T01:40:40;13.80;99.90
27978;DHT22;15314;49.248;6.968;2023-05-07T01:41:42;13.80;99.90
27978;DHT22;15314;49.248;6.968;2023-05-07T01:42:43;13.70;99.90
27978;DHT22;15314;49.248;6.968;2023-05-07T01:43:45;13.70;99.90
27978;DHT22;15314;49.248;6.968;2023-05-07T01:44:46;13.70;99.90
27978;DHT22;15314;49.248;6.968;2023-05-07T01:45:47;13.70;99.90
27978;DHT22;15314;49.248;6.968;2023-05-07T01:46:49;13.80;99.90
27978;DHT22;15314;49.248;6.968;2023-05-07T01:47:50;13.80;99.90
27978;DHT22;15314;49.248;6.968;2023-05-07T01:48:51;13.80;99.90
27978;DHT22;15314;49.248;6.968;2023-05-07T01:49:52;13.80;99.90
27978;DHT22;15314;49.248;6.968;2023-05-07T01:50:53;13.70;99.90
27978;DHT22;15314;49.248;6.968;2023-05-07T01:51:54;13.70;99.90
27978;DHT22;15314;49.248;6.968;2023-05-07T01:52:56;13.70;99.90
27978;DHT22;15314;49.248;6.968;2023-05-07T01:53:57;13.70;99.90
27978;DHT22;15314;49.248;6.968;2023-05-07T01:54:58;13.70;99.90
27978;DHT22;15314;49.248;6.968;2023-05-07T01:55:58;13.70;99.90
27978;DHT22;15314;49.248;6.968;2023-05-07T01:56:59;13.80;99.90
27978;DHT22;15314;49.248;6.968;2023-05-07T01:58:00;13.80;99.90
27978;DHT22;15314;49.248;6.968;2023-05-07T01:59:01;13.80;99.90
27978;DHT22;15314;49.248;6.968;2023-05-07T02:00:02;13.80;99.90
27978;DHT22;15314;49.248;6.968;2023-05-07T02:01:05;13.80;99.90
27978;DHT22;15314;49.248;6.968;2023-05-07T02:02:06;13.80;99.90
27978;DHT22;15314;49.248;6.968;2023-05-07T02:03:06;13.80;99.90
27978;DHT22;15314;49.248;6.968;2023-05-07T02:04:07;13.80;99.90
27978;DHT22;15314;49.248;6.968;2023-05-07T02:05:08;13.80;99.90
27978;DHT22;15314;49.248;6.968;2023-05-07T02:06:09;13.80;99.90
27978;DHT22;15314;49.248;6.968;2023-05-07T02:07:09;13.80;99.90
27978;DHT22;15314;49.248;6.968;2023-05-07T02:08:10;13.80;99.90
27978;DHT22;15314;49.248;6.968;2023-05-07T02:09:11;13.70;99.90
27978;DHT22;15314;49.248;6.968;2023-05-07T02:10:12;13.70;99.90
27978;DHT22;15314;49.248;6.968;2023-05-07T02:11:12;13.70;99.90
27978;DHT22;15314;49.248;6.968;2023-05-07T02:12:13;13.70;99.90
27978;DHT22;15314;49.248;6.968;2023-05-07T02:13:14;13.70;99.90
27978;DHT22;15314;49.248;6.968;2023-05-07T02:14:14;13.70;99.90
27978;DHT22;15314;49.248;6.968;2023-05-07T02:15:15;13.60;99.90
27978;DHT22;15314;49.248;6.968;2023-05-07T02:16:16;13.60;99.90
27978;DHT22;15314;49.248;6.968;2023-05-07T02:17:17;13.60;99.90
27978;DHT22;15314;49.248;6.968;2023-05-07T02:18:17;13.50;99.90
27978;DHT22;15314;49.248;6.968;2023-05-07T02:19:18;13.50;99.90
27978;DHT22;15314;49.248;6.968;2023-05-07T02:20:21;13.60;99.90
27978;DHT22;15314;49.248;6.968;2023-05-07T02:21:22;13.50;99.90
27978;DHT22;15314;49.248;6.968;2023-05-07T02:22:22;13.50;99.90
27978;DHT22;15314;49.248;6.968;2023-05-07T02:23:23;13.50;99.90
27978;DHT22;15314;49.248;6.968;2023-05-07T02:24:24;13.50;99.90
27978;DHT22;15314;49.248;6.968;2023-05-07T02:25:24;13.50;99.90
27978;DHT22;15314;49.248;6.968;2023-05-07T02:26:25;13.60;99.90
27978;DHT22;15314;49.248;6.968;2023-05-07T02:27:26;13.60;99.90
27978;DHT22;15314;49.248;6.968;2023-05-07T02:28:26;13.60;99.90
27978;DHT22;15314;49.248;6.968;2023-05-07T02:29:27;13.60;99.90
27978;DHT22;15314;49.248;6.968;2023-05-07T02:30:28;13.60;99.90
27978;DHT22;15314;49.248;6.968;2023-05-07T02:31:29;13.60;99.90
27978;DHT22;15314;49.248;6.968;2023-05-07T02:32:29;13.60;99.90
27978;DHT22;15314;49.248;6.968;2023-05-07T02:33:30;13.60;99.90
27978;DHT22;15314;49.248;6.968;2023-05-07T02:34:31;13.60;99.90
27978;DHT22;15314;49.248;6.968;2023-05-07T02:35:31;13.60;99.90
27978;DHT22;15314;49.248;6.968;2023-05-07T02:36:32;13.60;99.90
27978;DHT22;15314;49.248;6.968;2023-05-07T02:37:33;13.60;99.90
27978;DHT22;15314;49.248;6.968;2023-05-07T02:38:34;13.60;99.90
27978;DHT22;15314;49.248;6.968;2023-05-07T02:39:34;13.60;99.90
27978;DHT22;15314;49.248;6.968;2023-05-07T02:40:35;13.50;99.90
27978;DHT22;15314;49.248;6.968;2023-05-07T02:41:39;13.50;99.90
27978;DHT22;15314;49.248;6.968;2023-05-07T02:42:39;13.50;99.90
27978;DHT22;15314;49.248;6.968;2023-05-07T02:43:40;13.50;99.90
27978;DHT22;15314;49.248;6.968;2023-05-07T02:44:41;13.50;99.90
27978;DHT22;15314;49.248;6.968;2023-05-07T02:45:41;13.50;99.90
27978;DHT22;15314;49.248;6.968;2023-05-07T02:46:43;13.50;99.90
27978;DHT22;15314;49.248;6.968;2023-05-07T02:47:44;13.50;99.90
27978;DHT22;15314;49.248;6.968;2023-05-07T02:48:44;13.50;99.90
27978;DHT22;15314;49.248;6.968;2023-05-07T02:49:45;13.60;99.90
27978;DHT22;15314;49.248;6.968;2023-05-07T02:50:46;13.50;99.90
27978;DHT22;15314;49.248;6.968;2023-05-07T02:51:46;13.60;99.90
27978;DHT22;15314;49.248;6.968;2023-05-07T02:52:47;13.60;99.90
27978;DHT22;15314;49.248;6.968;2023-05-07T02:53:48;13.60;99.90
27978;DHT22;15314;49.248;6.968;2023-05-07T02:54:48;13.60;99.90
27978;DHT22;15314;49.248;6.968;2023-05-07T02:55:49;13.60;99.90
27978;DHT22;15314;49.248;6.968;2023-05-07T02:56:50;13.50;99.90
27978;DHT22;15314;49.248;6.968;2023-05-07T02:57:51;13.60;99.90
27978;DHT22;15314;49.248;6.968;2023-05-07T02:58:51;13.50;99.90
27978;DHT22;15314;49.248;6.968;2023-05-07T02:59:52;13.60;99.90
27978;DHT22;15314;49.248;6.968;2023-05-07T03:00:52;13.50;99.90
27978;DHT22;15314;49.248;6.968;2023-05-07T03:01:54;13.60;99.90
27978;DHT22;15314;49.248;6.968;2023-05-07T03:02:55;13.60;99.90
27978;DHT22;15314;49.248;6.968;2023-05-07T03:03:56;13.60;99.90
27978;DHT22;15314;49.248;6.968;2023-05-07T03:04:56;13.60;99.90
27978;DHT22;15314;49.248;6.968;2023-05-07T03:05:57;13.60;99.90
27978;DHT22;15314;49.248;6.968;2023-05-07T03:06:58;13.60;99.90
27978;DHT22;15314;49.248;6.968;2023-05-07T03:07:58;13.50;99.90
27978;DHT22;15314;49.248;6.968;2023-05-07T03:08:59;13.50;99.90
27978;DHT22;15314;49.248;6.968;2023-05-07T03:09:59;13.50;99.90
27978;DHT22;15314;49.248;6.968;2023-05-07T03:11:00;13.50;99.90
27978;DHT22;15314;49.248;6.968;2023-05-07T03:12:01;13.50;99.90
27978;DHT22;15314;49.248;6.968;2023-05-07T03:13:02;13.50;99.90
27978;DHT22;15314;49.248;6.968;2023-05-07T03:14:03;13.50;99.90
27978;DHT22;15314;49.248;6.968;2023-05-07T03:15:04;13.50;99.90
27978;DHT22;15314;49.248;6.968;2023-05-07T03:16:04;13.50;99.90
27978;DHT22;15314;49.248;6.968;2023-05-07T03:17:05;13.50;99.90
27978;DHT22;15314;49.248;6.968;2023-05-07T03:18:06;13.50;99.90
27978;DHT22;15314;49.248;6.968;2023-05-07T03:19:06;13.40;99.90
27978;DHT22;15314;49.248;6.968;2023-05-07T03:20:08;13.40;99.90
27978;DHT22;15314;49.248;6.968;2023-05-07T03:21:09;13.50;99.90
27978;DHT22;15314;49.248;6.968;2023-05-07T03:22:10;13.50;99.90
27978;DHT22;15314;49.248;6.968;2023-05-07T03:23:11;13.50;99.90
27978;DHT22;15314;49.248;6.968;2023-05-07T03:24:11;13.50;99.90
27978;DHT22;15314;49.248;6.968;2023-05-07T03:25:12;13.40;99.90
27978;DHT22;15314;49.248;6.968;2023-05-07T03:26:13;13.40;99.90
27978;DHT22;15314;49.248;6.968;2023-05-07T03:27:13;13.40;99.90
27978;DHT22;15314;49.248;6.968;2023-05-07T03:28:14;13.40;99.90
27978;DHT22;15314;49.248;6.968;2023-05-07T03:29:14;13.40;99.90
27978;DHT22;15314;49.248;6.968;2023-05-07T03:30:15;13.40;99.90
27978;DHT22;15314;49.248;6.968;2023-05-07T03:31:16;13.40;99.90
27978;DHT22;15314;49.248;6.968;2023-05-07T03:32:17;13.40;99.90
27978;DHT22;15314;49.248;6.968;2023-05-07T03:33:17;13.40;99.90
27978;DHT22;15314;49.248;6.968;2023-05-07T03:34:18;13.40;99.90
27978;DHT22;15314;49.248;6.968;2023-05-07T03:35:22;13.40;99.90
27978;DHT22;15314;49.248;6.968;2023-05-07T03:36:23;13.40;99.90
27978;DHT22;15314;49.248;6.968;2023-05-07T03:37:24;13.40;99.90
27978;DHT22;15314;49.248;6.968;2023-05-07T03:38:24;13.40;99.90
27978;DHT22;15314;49.248;6.968;2023-05-07T03:39:25;13.50;99.90
27978;DHT22;15314;49.248;6.968;2023-05-07T03:40:26;13.50;99.90
27978;DHT22;15314;49.248;6.968;2023-05-07T03:41:27;13.50;99.90
27978;DHT22;15314;49.248;6.968;2023-05-07T03:42:28;13.50;99.90
27978;DHT22;15314;49.248;6.968;2023-05-07T03:43:29;13.50;99.90
27978;DHT22;15314;49.248;6.968;2023-05-07T03:44:29;13.50;99.90
27978;DHT22;15314;49.248;6.968;2023-05-07T03:45:30;13.50;99.90
27978;DHT22;15314;49.248;6.968;2023-05-07T03:46:31;13.50;99.90
27978;DHT22;15314;49.248;6.968;2023-05-07T03:47:33;13.50;99.90
27978;DHT22;15314;49.248;6.968;2023-05-07T03:48:33;13.50;99.90
27978;DHT22;15314;49.248;6.968;2023-05-07T03:49:34;13.50;99.90
27978;DHT22;15314;49.248;6.968;2023-05-07T03:50:35;13.40;99.90
27978;DHT22;15314;49.248;6.968;2023-05-07T03:51:35;13.40;99.90
27978;DHT22;15314;49.248;6.968;2023-05-07T03:52:36;13.50;99.90
27978;DHT22;15314;49.248;6.968;2023-05-07T03:53:37;13.50;99.90
27978;DHT22;15314;49.248;6.968;2023-05-07T03:54:37;13.50;99.90
27978;DHT22;15314;49.248;6.968;2023-05-07T03:55:38;13.50;99.90
27978;DHT22;15314;49.248;6.968;2023-05-07T03:56:39;13.50;99.90
27978;DHT22;15314;49.248;6.968;2023-05-07T03:57:39;13.50;99.90
27978;DHT22;15314;49.248;6.968;2023-05-07T03:58:40;13.50;99.90
27978;DHT22;15314;49.248;6.968;2023-05-07T03:59:40;13.50;99.90
27978;DHT22;15314;49.248;6.968;2023-05-07T04:00:41;13.50;99.90
27978;DHT22;15314;49.248;6.968;2023-05-07T04:01:42;13.40;99.90
27978;DHT22;15314;49.248;6.968;2023-05-07T04:02:43;13.50;99.90
27978;DHT22;15314;49.248;6.968;2023-05-07T04:03:44;13.50;99.90
27978;DHT22;15314;49.248;6.968;2023-05-07T04:04:45;13.40;99.90
27978;DHT22;15314;49.248;6.968;2023-05-07T04:05:46;13.40;99.90
27978;DHT22;15314;49.248;6.968;2023-05-07T04:06:46;13.40;99.90
27978;DHT22;15314;49.248;6.968;2023-05-07T04:07:47;13.40;99.90
27978;DHT22;15314;49.248;6.968;2023-05-07T04:08:48;13.40;99.90
27978;DHT22;15314;49.248;6.968;2023-05-07T04:09:48;13.40;99.90
27978;DHT22;15314;49.248;6.968;2023-05-07T04:10:57;13.40;99.90
27978;DHT22;15314;49.248;6.968;2023-05-07T04:11:58;13.50;99.90
27978;DHT22;15314;49.248;6.968;2023-05-07T04:12:58;13.50;99.90
27978;DHT22;15314;49.248;6.968;2023-05-07T04:13:59;13.40;99.90
27978;DHT22;15314;49.248;6.968;2023-05-07T04:15:00;13.50;99.90
27978;DHT22;15314;49.248;6.968;2023-05-07T04:16:02;13.50;99.90
27978;DHT22;15314;49.248;6.968;2023-05-07T04:17:03;13.50;99.90
27978;DHT22;15314;49.248;6.968;2023-05-07T04:18:04;13.60;99.90
27978;DHT22;15314;49.248;6.968;2023-05-07T04:19:04;13.50;99.90
27978;DHT22;15314;49.248;6.968;2023-05-07T04:20:06;13.60;99.90
27978;DHT22;15314;49.248;6.968;2023-05-07T04:21:15;13.60;99.90
27978;DHT22;15314;49.248;6.968;2023-05-07T04:22:16;13.70;99.90
27978;DHT22;15314;49.248;6.968;2023-05-07T04:23:16;13.60;99.90
27978;DHT22;15314;49.248;6.968;2023-05-07T04:24:17;13.60;99.90
27978;DHT22;15314;49.248;6.968;2023-05-07T04:25:18;13.60;99.90
27978;DHT22;15314;49.248;6.968;2023-05-07T04:26:18;13.60;99.90
27978;DHT22;15314;49.248;6.968;2023-05-07T04:27:19;13.70;99.90
27978;DHT22;15314;49.248;6.968;2023-05-07T04:28:20;13.60;99.90
27978;DHT22;15314;49.248;6.968;2023-05-07T04:29:21;13.60;99.90
27978;DHT22;15314;49.248;6.968;2023-05-07T04:30:21;13.70;99.90
27978;DHT22;15314;49.248;6.968;2023-05-07T04:31:22;13.70;99.90
27978;DHT22;15314;49.248;6.968;2023-05-07T04:32:23;13.70;99.90
27978;DHT22;15314;49.248;6.968;2023-05-07T04:33:25;13.70;99.90
27978;DHT22;15314;49.248;6.968;2023-05-07T04:34:25;13.80;99.90
27978;DHT22;15314;49.248;6.968;2023-05-07T04:35:26;13.70;99.90
27978;DHT22;15314;49.248;6.968;2023-05-07T04:36:27;13.80;99.90
27978;DHT22;15314;49.248;6.968;2023-05-07T04:37:27;13.80;99.90
27978;DHT22;15314;49.248;6.968;2023-05-07T04:38:31;13.80;99.90
27978;DHT22;15314;49.248;6.968;2023-05-07T04:39:32;13.80;99.90
27978;DHT22;15314;49.248;6.968;2023-05-07T04:40:36;13.80;99.90
27978;DHT22;15314;49.248;6.968;2023-05-07T04:41:37;13.80;99.90
27978;DHT22;15314;49.248;6.968;2023-05-07T04:42:37;13.80;99.90
27978;DHT22;15314;49.248;6.968;2023-05-07T04:43:38;13.80;99.90
27978;DHT22;15314;49.248;6.968;2023-05-07T04:44:38;13.80;99.90
27978;DHT22;15314;49.248;6.968;2023-05-07T04:45:39;13.90;99.90
27978;DHT22;15314;49.248;6.968;2023-05-07T04:46:41;13.90;99.90
27978;DHT22;15314;49.248;6.968;2023-05-07T04:47:42;13.80;99.90
27978;DHT22;15314;49.248;6.968;2023-05-07T04:48:42;13.80;99.90
27978;DHT22;15314;49.248;6.968;2023-05-07T04:49:43;13.90;99.90
27978;DHT22;15314;49.248;6.968;2023-05-07T04:50:44;13.90;99.90
27978;DHT22;15314;49.248;6.968;2023-05-07T04:51:45;13.90;99.90
27978;DHT22;15314;49.248;6.968;2023-05-07T04:52:46;13.90;99.90
27978;DHT22;15314;49.248;6.968;2023-05-07T04:53:46;13.90;99.90
27978;DHT22;15314;49.248;6.968;2023-05-07T04:54:47;13.90;99.90
27978;DHT22;15314;49.248;6.968;2023-05-07T04:55:47;13.90;99.90
27978;DHT22;15314;49.248;6.968;2023-05-07T04:56:48;13.90;99.90
27978;DHT22;15314;49.248;6.968;2023-05-07T04:57:49;14.00;99.90
27978;DHT22;15314;49.248;6.968;2023-05-07T04:58:50;14.00;99.90
27978;DHT22;15314;49.248;6.968;2023-05-07T04:59:51;14.00;99.90
27978;DHT22;15314;49.248;6.968;2023-05-07T05:00:52;14.00;99.90
27978;DHT22;15314;49.248;6.968;2023-05-07T05:01:52;14.00;99.90
27978;DHT22;15314;49.248;6.968;2023-05-07T05:02:53;14.00;99.90
27978;DHT22;15314;49.248;6.968;2023-05-07T05:03:54;14.00;99.90
27978;DHT22;15314;49.248;6.968;2023-05-07T05:04:54;14.00;99.90
27978;DHT22;15314;49.248;6.968;2023-05-07T05:05:55;14.00;99.90
27978;DHT22;15314;49.248;6.968;2023-05-07T05:06:58;14.00;99.90
27978;DHT22;15314;49.248;6.968;2023-05-07T05:07:58;14.10;99.90
27978;DHT22;15314;49.248;6.968;2023-05-07T05:08:59;14.20;99.90
27978;DHT22;15314;49.248;6.968;2023-05-07T05:10:01;14.30;99.90
27978;DHT22;15314;49.248;6.968;2023-05-07T05:11:02;14.30;99.90
27978;DHT22;15314;49.248;6.968;2023-05-07T05:12:03;14.30;99.90
27978;DHT22;15314;49.248;6.968;2023-05-07T05:13:03;14.30;99.90
27978;DHT22;15314;49.248;6.968;2023-05-07T05:14:04;14.30;99.90
27978;DHT22;15314;49.248;6.968;2023-05-07T05:15:05;14.40;99.90
27978;DHT22;15314;49.248;6.968;2023-05-07T05:16:06;14.50;99.90
27978;DHT22;15314;49.248;6.968;2023-05-07T05:17:07;14.50;99.90
27978;DHT22;15314;49.248;6.968;2023-05-07T05:18:07;14.60;99.90
27978;DHT22;15314;49.248;6.968;2023-05-07T05:19:08;14.60;99.90
27978;DHT22;15314;49.248;6.968;2023-05-07T05:20:09;14.70;99.90
27978;DHT22;15314;49.248;6.968;2023-05-07T05:21:11;14.80;99.90
27978;DHT22;15314;49.248;6.968;2023-05-07T05:22:11;14.80;99.90
27978;DHT22;15314;49.248;6.968;2023-05-07T05:23:12;14.80;99.90
27978;DHT22;15314;49.248;6.968;2023-05-07T05:24:13;14.90;99.90
27978;DHT22;15314;49.248;6.968;2023-05-07T05:25:13;14.80;99.90
27978;DHT22;15314;49.248;6.968;2023-05-07T05:26:14;14.90;99.90
27978;DHT22;15314;49.248;6.968;2023-05-07T05:27:15;14.90;99.90
27978;DHT22;15314;49.248;6.968;2023-05-07T05:28:15;15.00;99.90
27978;DHT22;15314;49.248;6.968;2023-05-07T05:29:16;14.90;99.90
27978;DHT22;15314;49.248;6.968;2023-05-07T05:30:16;15.00;99.90
27978;DHT22;15314;49.248;6.968;2023-05-07T05:31:17;15.00;99.90
27978;DHT22;15314;49.248;6.968;2023-05-07T05:32:17;14.90;99.90
27978;DHT22;15314;49.248;6.968;2023-05-07T05:33:18;15.00;99.90
27978;DHT22;15314;49.248;6.968;2023-05-07T05:34:19;15.00;99.90
27978;DHT22;15314;49.248;6.968;2023-05-07T05:35:22;15.00;99.90
27978;DHT22;15314;49.248;6.968;2023-05-07T05:36:23;15.00;99.90
27978;DHT22;15314;49.248;6.968;2023-05-07T05:37:24;15.10;99.90
27978;DHT22;15314;49.248;6.968;2023-05-07T05:38:25;15.20;99.90
27978;DHT22;15314;49.248;6.968;2023-05-07T05:39:26;15.20;99.90
27978;DHT22;15314;49.248;6.968;2023-05-07T05:40:26;15.30;99.90
27978;DHT22;15314;49.248;6.968;2023-05-07T05:41:27;15.40;99.90
27978;DHT22;15314;49.248;6.968;2023-05-07T05:42:28;15.40;99.90
27978;DHT22;15314;49.248;6.968;2023-05-07T05:43:28;15.40;99.90
27978;DHT22;15314;49.248;6.968;2023-05-07T05:44:29;15.50;99.90
27978;DHT22;15314;49.248;6.968;2023-05-07T05:45:30;15.60;99.90
27978;DHT22;15314;49.248;6.968;2023-05-07T05:46:30;15.70;99.90
27978;DHT22;15314;49.248;6.968;2023-05-07T05:47:31;15.70;99.90
27978;DHT22;15314;49.248;6.968;2023-05-07T05:48:32;15.80;99.90
27978;DHT22;15314;49.248;6.968;2023-05-07T05:49:32;15.90;99.90
27978;DHT22;15314;49.248;6.968;2023-05-07T05:50:34;16.00;99.90
27978;DHT22;15314;49.248;6.968;2023-05-07T05:51:36;16.00;99.90
27978;DHT22;15314;49.248;6.968;2023-05-07T05:52:37;16.00;99.90
27978;DHT22;15314;49.248;6.968;2023-05-07T05:53:38;16.10;99.90
27978;DHT22;15314;49.248;6.968;2023-05-07T05:54:38;16.10;99.90
27978;DHT22;15314;49.248;6.968;2023-05-07T05:55:39;16.10;99.90
27978;DHT22;15314;49.248;6.968;2023-05-07T05:56:40;16.20;99.90
27978;DHT22;15314;49.248;6.968;2023-05-07T05:57:41;16.30;99.90
27978;DHT22;15314;49.248;6.968;2023-05-07T05:58:41;16.20;99.90
27978;DHT22;15314;49.248;6.968;2023-05-07T05:59:42;16.30;99.90
27978;DHT22;15314;49.248;6.968;2023-05-07T06:00:44;16.30;99.90
27978;DHT22;15314;49.248;6.968;2023-05-07T06:01:45;16.30;99.90
27978;DHT22;15314;49.248;6.968;2023-05-07T06:02:45;16.40;99.90
27978;DHT22;15314;49.248;6.968;2023-05-07T06:03:46;16.40;99.90
27978;DHT22;15314;49.248;6.968;2023-05-07T06:04:47;16.50;99.90
27978;DHT22;15314;49.248;6.968;2023-05-07T06:05:47;16.50;99.90
27978;DHT22;15314;49.248;6.968;2023-05-07T06:06:48;16.60;99.90
27978;DHT22;15314;49.248;6.968;2023-05-07T06:07:49;16.60;99.90
27978;DHT22;15314;49.248;6.968;2023-05-07T06:08:49;16.70;99.90
27978;DHT22;15314;49.248;6.968;2023-05-07T06:09:50;16.70;99.90
27978;DHT22;15314;49.248;6.968;2023-05-07T06:10:50;16.70;99.90
27978;DHT22;15314;49.248;6.968;2023-05-07T06:11:51;16.80;99.90
27978;DHT22;15314;49.248;6.968;2023-05-07T06:12:52;16.90;99.90
27978;DHT22;15314;49.248;6.968;2023-05-07T06:13:52;17.00;99.90
27978;DHT22;15314;49.248;6.968;2023-05-07T06:14:53;17.10;99.90
27978;DHT22;15314;49.248;6.968;2023-05-07T06:15:54;17.10;99.90
27978;DHT22;15314;49.248;6.968;2023-05-07T06:16:54;17.10;99.90
27978;DHT22;15314;49.248;6.968;2023-05-07T06:17:55;17.10;99.90
27978;DHT22;15314;49.248;6.968;2023-05-07T06:18:57;17.20;99.90
27978;DHT22;15314;49.248;6.968;2023-05-07T06:19:58;17.20;99.90
27978;DHT22;15314;49.248;6.968;2023-05-07T06:20:58;17.30;99.90
27978;DHT22;15314;49.248;6.968;2023-05-07T06:21:59;17.40;99.90
27978;DHT22;15314;49.248;6.968;2023-05-07T06:23:02;17.50;99.80
27978;DHT22;15314;49.248;6.968;2023-05-07T06:24:02;17.70;99.50
27978;DHT22;15314;49.248;6.968;2023-05-07T06:25:04;17.70;99.50